Time;durP1;ratioP1;P1;durP2;ratioP2;P2;SDS_P1;SDS_P2;PMS_P1;PMS_P2;Temp;Humidity;BMP_temperature;BMP_pressure;BME280_temperature;BME280_humidity;BME280_pressure;Samples;Min_cycle;Max_cycle;Signal;HPM_P1;HPM_P2
2022/07/18 00:00:52;;;;;;;2.65;1.70;;;15.10;99.90;;;;;;5082696;28;20085;-78
2022/07/18 00:03:17;;;;;;;2.92;1.85;;;15.20;99.90;;;;;;5078372;28;20028;-79
2022/07/18 00:05:43;;;;;;;1.38;1.27;;;15.20;99.90;;;;;;5089111;28;20041;-78
2022/07/18 00:08:09;;;;;;;2.53;1.90;;;15.20;99.90;;;;;;5087870;28;20028;-79
2022/07/18 00:10:35;;;;;;;1.35;1.25;;;15.20;99.90;;;;;;5080001;28;20052;-79
2022/07/18 00:13:01;;;;;;;1.45;1.35;;;15.20;99.90;;;;;;5080734;28;20089;-78
2022/07/18 00:15:27;;;;;;;1.75;1.65;;;15.10;99.90;;;;;;5076697;28;20394;-78
2022/07/18 00:17:52;;;;;;;1.65;1.25;;;15.10;99.90;;;;;;5073800;28;20064;-78
2022/07/18 00:20:18;;;;;;;2.85;1.67;;;15.00;99.90;;;;;;5083746;28;20056;-79
2022/07/18 00:22:44;;;;;;;3.90;1.75;;;15.00;99.90;;;;;;5091711;28;20024;-78
2022/07/18 00:25:09;;;;;;;1.60;1.50;;;14.90;99.90;;;;;;5091315;28;20024;-78
2022/07/18 00:27:35;;;;;;;2.53;1.60;;;14.90;99.90;;;;;;5078647;28;20031;-78
2022/07/18 00:30:01;;;;;;;1.90;1.80;;;14.90;99.90;;;;;;5082261;28;20044;-78
2022/07/18 00:32:27;;;;;;;3.45;1.63;;;14.90;99.90;;;;;;5080571;28;20036;-77
2022/07/18 00:34:52;;;;;;;11.80;1.85;;;14.90;99.90;;;;;;5080255;28;20169;-78
2022/07/18 00:37:18;;;;;;;1.63;1.52;;;14.80;99.90;;;;;;5082712;28;20035;-78
2022/07/18 00:39:44;;;;;;;2.15;1.92;;;14.80;99.90;;;;;;5083492;28;20028;-78
2022/07/18 00:42:09;;;;;;;4.80;2.10;;;14.80;99.90;;;;;;5081793;28;20028;-78
2022/07/18 00:44:35;;;;;;;1.92;1.40;;;14.70;99.90;;;;;;5076919;28;20028;-79
2022/07/18 00:47:02;;;;;;;4.88;1.77;;;14.70;99.90;;;;;;5081740;28;20112;-77
2022/07/18 00:49:29;;;;;;;4.18;1.60;;;14.70;99.90;;;;;;5083818;28;20059;-78
2022/07/18 00:51:55;;;;;;;4.05;1.88;;;14.70;99.90;;;;;;5082989;28;20044;-77
2022/07/18 00:54:21;;;;;;;1.90;1.80;;;14.70;99.90;;;;;;5081180;28;20471;-78
2022/07/18 00:56:48;;;;;;;1.75;1.50;;;14.60;99.90;;;;;;5085903;28;20099;-78
2022/07/18 00:59:14;;;;;;;3.70;1.70;;;14.60;99.90;;;;;;5081223;28;20060;-78
2022/07/18 01:01:43;;;;;;;1.67;1.42;;;14.60;99.90;;;;;;5087037;28;20060;-78
2022/07/18 01:04:21;;;;;;;2.90;1.42;;;14.60;99.90;;;;;;5088105;28;20395;-80
2022/07/18 01:06:48;;;;;;;1.95;1.83;;;14.60;99.90;;;;;;5082204;28;20494;-78
2022/07/18 01:09:14;;;;;;;1.67;1.45;;;14.60;99.90;;;;;;5102201;28;20035;-79
2022/07/18 01:11:40;;;;;;;2.35;1.77;;;14.60;99.90;;;;;;5070359;28;20028;-78
2022/07/18 01:14:06;;;;;;;1.40;1.30;;;14.60;99.90;;;;;;5080074;28;20021;-78
2022/07/18 01:16:33;;;;;;;3.30;1.88;;;14.60;99.90;;;;;;5082335;28;20107;-78
2022/07/18 01:18:59;;;;;;;1.65;1.55;;;14.50;99.90;;;;;;5085603;28;20033;-78
2022/07/18 01:21:25;;;;;;;2.80;1.58;;;14.50;99.90;;;;;;5072724;28;20109;-78
2022/07/18 01:23:51;;;;;;;1.65;1.55;;;14.40;99.90;;;;;;5089292;28;20444;-78
2022/07/18 01:26:17;;;;;;;2.20;2.10;;;14.40;99.90;;;;;;5075042;28;20068;-78
2022/07/18 01:28:44;;;;;;;2.13;2.03;;;14.30;99.90;;;;;;5077536;28;20020;-78
2022/07/18 01:31:10;;;;;;;1.83;1.73;;;14.20;99.90;;;;;;5094900;28;20039;-78
2022/07/18 01:33:36;;;;;;;2.20;1.98;;;14.30;99.90;;;;;;5072018;28;20387;-78
2022/07/18 01:36:03;;;;;;;1.83;1.50;;;14.10;99.90;;;;;;5074753;28;20070;-78
2022/07/18 01:38:30;;;;;;;2.63;1.77;;;14.10;99.90;;;;;;5083302;28;20027;-79
2022/07/18 01:40:56;;;;;;;1.88;1.50;;;14.10;99.90;;;;;;5085325;28;20483;-78
2022/07/18 01:43:26;;;;;;;2.17;1.95;;;14.10;99.90;;;;;;5079240;28;20029;-78
2022/07/18 01:45:52;;;;;;;2.80;2.33;;;14.10;99.90;;;;;;5086249;28;20089;-78
2022/07/18 01:48:19;;;;;;;2.17;1.98;;;14.10;99.90;;;;;;5087697;28;20029;-79
2022/07/18 01:50:45;;;;;;;4.18;2.00;;;14.10;99.90;;;;;;5084715;28;20117;-78
2022/07/18 01:53:10;;;;;;;2.25;1.52;;;14.00;99.90;;;;;;5081332;28;20083;-79
2022/07/18 01:55:36;;;;;;;2.65;2.13;;;14.00;99.90;;;;;;5083359;28;20700;-77
2022/07/18 01:58:02;;;;;;;6.53;2.03;;;14.00;99.90;;;;;;5073184;28;20036;-78
2022/07/18 02:00:27;;;;;;;2.58;1.90;;;14.10;99.90;;;;;;5083173;28;20163;-78
2022/07/18 02:02:53;;;;;;;2.47;1.67;;;14.00;99.90;;;;;;5076810;28;20095;-78
2022/07/18 02:05:19;;;;;;;4.40;1.88;;;14.00;99.90;;;;;;5086139;28;20052;-78
2022/07/18 02:07:45;;;;;;;2.03;1.88;;;14.00;99.90;;;;;;5093494;28;20378;-79
2022/07/18 02:10:17;;;;;;;2.20;2.00;;;14.00;99.90;;;;;;5082745;28;20036;-78
2022/07/18 02:12:42;;;;;;;3.53;2.03;;;14.00;99.90;;;;;;5074871;28;20086;-78
2022/07/18 02:15:10;;;;;;;2.05;1.85;;;14.00;99.90;;;;;;5092881;28;20020;-78
2022/07/18 02:17:36;;;;;;;2.38;2.17;;;13.90;99.90;;;;;;5085938;28;20028;-79
2022/07/18 02:20:03;;;;;;;3.25;2.00;;;13.90;99.90;;;;;;5084104;28;20024;-78
2022/07/18 02:22:29;;;;;;;2.85;2.00;;;13.90;99.90;;;;;;5084520;28;20028;-78
2022/07/18 02:24:55;;;;;;;2.05;1.85;;;13.90;99.90;;;;;;5084644;28;20120;-78
2022/07/18 02:27:20;;;;;;;3.55;1.67;;;13.90;99.90;;;;;;5089954;28;20019;-78
2022/07/18 02:29:47;;;;;;;3.20;2.47;;;13.90;99.90;;;;;;5082495;28;20391;-78
2022/07/18 02:32:13;;;;;;;2.95;2.75;;;13.80;99.90;;;;;;5077409;28;20024;-78
2022/07/18 02:34:39;;;;;;;2.33;2.22;;;13.80;99.90;;;;;;5094129;28;20043;-78
2022/07/18 02:37:05;;;;;;;1.73;1.55;;;13.80;99.90;;;;;;5093835;28;20020;-78
2022/07/18 02:39:30;;;;;;;5.82;1.70;;;13.70;99.90;;;;;;5085572;28;20043;-78
2022/07/18 02:41:56;;;;;;;2.53;1.65;;;13.70;99.90;;;;;;5084357;28;20032;-78
2022/07/18 02:44:23;;;;;;;4.13;2.67;;;13.70;99.90;;;;;;5093909;28;20035;-78
2022/07/18 02:46:49;;;;;;;1.77;1.67;;;13.70;99.90;;;;;;5084225;28;20083;-77
2022/07/18 02:49:27;;;;;;;2.38;2.17;;;13.50;99.90;;;;;;5090479;28;20024;-78
2022/07/18 02:51:58;;;;;;;2.97;2.00;;;13.60;99.90;;;;;;5080821;28;20437;-78
2022/07/18 02:54:26;;;;;;;3.10;2.10;;;13.60;99.90;;;;;;5085319;28;20035;-78
2022/07/18 02:56:52;;;;;;;2.60;1.85;;;13.50;99.90;;;;;;5085356;28;20027;-79
2022/07/18 02:59:18;;;;;;;1.98;1.77;;;13.50;99.90;;;;;;5083810;28;20016;-78
2022/07/18 03:01:44;;;;;;;2.17;1.80;;;13.60;99.90;;;;;;5085034;28;20670;-78
2022/07/18 03:04:10;;;;;;;2.90;1.73;;;13.50;99.90;;;;;;5093300;28;20031;-78
2022/07/18 03:06:36;;;;;;;2.58;1.90;;;13.40;99.90;;;;;;5093244;28;20051;-77
2022/07/18 03:09:02;;;;;;;2.10;1.90;;;13.40;99.90;;;;;;5077589;28;20460;-78
2022/07/18 03:11:28;;;;;;;3.38;2.17;;;13.40;99.90;;;;;;5084329;28;20028;-78
2022/07/18 03:13:54;;;;;;;3.15;1.98;;;13.30;99.90;;;;;;5079331;28;20021;-79
2022/07/18 03:16:19;;;;;;;3.83;2.15;;;13.30;99.90;;;;;;5082170;28;21126;-78
2022/07/18 03:18:45;;;;;;;4.03;2.08;;;13.30;99.90;;;;;;5088942;28;20112;-78
2022/07/18 03:21:10;;;;;;;6.07;2.10;;;13.30;99.90;;;;;;5080168;28;20025;-78
2022/07/18 03:23:36;;;;;;;3.65;2.08;;;13.30;99.90;;;;;;5075813;28;20035;-77
2022/07/18 03:26:02;;;;;;;2.58;2.38;;;13.30;99.90;;;;;;5099065;28;20018;-79
2022/07/18 03:28:28;;;;;;;2.65;2.08;;;13.30;99.90;;;;;;5093937;28;20379;-78
2022/07/18 03:30:53;;;;;;;2.67;2.10;;;13.40;99.90;;;;;;5085597;28;20040;-78
2022/07/18 03:33:19;;;;;;;4.25;2.10;;;13.40;99.90;;;;;;5084671;28;20056;-78
2022/07/18 03:35:45;;;;;;;4.82;1.98;;;13.30;99.90;;;;;;5082671;28;20032;-78
2022/07/18 03:38:10;;;;;;;2.33;2.13;;;13.30;99.90;;;;;;5092483;28;20020;-78
2022/07/18 03:40:36;;;;;;;1.92;1.83;;;13.20;99.90;;;;;;5084317;28;20248;-78
2022/07/18 03:43:02;;;;;;;2.10;1.98;;;13.20;99.90;;;;;;5086839;28;20463;-78
2022/07/18 03:45:27;;;;;;;2.75;2.00;;;13.30;99.90;;;;;;5081204;28;20032;-78
2022/07/18 03:47:54;;;;;;;2.03;1.90;;;13.30;99.90;;;;;;5084678;28;20024;-78
2022/07/18 03:50:20;;;;;;;2.03;1.80;;;13.40;99.90;;;;;;5077087;28;20055;-78
2022/07/18 03:52:46;;;;;;;3.50;1.73;;;13.50;99.90;;;;;;5080247;28;20835;-82
2022/07/18 03:55:13;;;;;;;2.17;1.98;;;14.10;99.90;;;;;;5079721;28;20032;-81
2022/07/18 03:57:39;;;;;;;2.05;1.83;;;14.80;99.90;;;;;;5071384;28;20020;-83
2022/07/18 04:00:08;;;;;;;2.05;1.83;;;15.50;99.90;;;;;;5087573;28;20024;-81
2022/07/18 04:02:44;;;;;;;3.78;1.65;;;16.00;99.90;;;;;;5084486;28;20040;-79
2022/07/18 04:05:10;;;;;;;2.40;2.30;;;16.20;99.90;;;;;;5080625;28;20044;-81
2022/07/18 04:07:37;;;;;;;4.47;1.63;;;16.40;99.90;;;;;;5080032;28;20024;-83
2022/07/18 04:10:05;;;;;;;3.58;1.70;;;16.50;99.90;;;;;;5087703;28;20036;-80
2022/07/18 04:12:31;;;;;;;4.07;1.60;;;16.50;99.90;;;;;;5071345;28;20055;-81
2022/07/18 04:14:57;;;;;;;1.52;1.42;;;16.40;99.90;;;;;;5078978;28;20052;-81
2022/07/18 04:17:23;;;;;;;2.00;1.38;;;16.60;99.90;;;;;;5082934;28;20021;-84
2022/07/18 04:19:49;;;;;;;3.05;1.45;;;16.80;99.90;;;;;;5092621;28;20437;-80
2022/07/18 04:22:15;;;;;;;1.90;1.52;;;16.70;99.90;;;;;;5072082;28;20021;-80
2022/07/18 04:24:40;;;;;;;2.25;1.60;;;16.80;99.90;;;;;;5079091;28;20418;-81
2022/07/18 04:27:06;;;;;;;1.58;1.33;;;16.80;99.90;;;;;;5081733;28;20477;-80
2022/07/18 04:29:32;;;;;;;1.77;1.25;;;16.90;99.90;;;;;;5080014;28;20487;-77
2022/07/18 04:31:58;;;;;;;5.10;1.55;;;17.10;99.90;;;;;;5071579;28;20395;-80
2022/07/18 04:34:24;;;;;;;1.40;1.30;;;17.10;99.90;;;;;;5076181;28;20096;-78
2022/07/18 04:36:49;;;;;;;1.80;1.70;;;17.10;99.90;;;;;;5083302;28;20470;-79
2022/07/18 04:39:16;;;;;;;1.70;1.35;;;17.00;99.90;;;;;;5073078;28;20036;-79
2022/07/18 04:41:42;;;;;;;2.05;1.38;;;17.00;99.90;;;;;;5077995;28;20482;-78
2022/07/18 04:44:08;;;;;;;2.60;1.02;;;16.90;99.90;;;;;;5100652;28;20020;-78
2022/07/18 04:46:34;;;;;;;2.00;1.30;;;17.00;99.90;;;;;;5083626;28;20023;-79
2022/07/18 04:49:00;;;;;;;1.73;1.63;;;17.20;99.90;;;;;;5092157;28;20036;-79
2022/07/18 04:51:26;;;;;;;3.17;1.45;;;17.30;99.90;;;;;;5071990;28;20067;-79
2022/07/18 04:53:54;;;;;;;5.35;1.55;;;16.90;99.90;;;;;;5086438;28;20016;-78
2022/07/18 04:56:20;;;;;;;1.58;1.48;;;16.70;99.90;;;;;;5081946;28;20028;-79
2022/07/18 04:58:46;;;;;;;5.55;1.70;;;16.50;99.90;;;;;;5080180;28;20380;-78
2022/07/18 05:01:12;;;;;;;1.50;1.40;;;16.60;99.90;;;;;;5096564;28;20020;-79
2022/07/18 05:03:37;;;;;;;3.03;2.03;;;16.50;99.90;;;;;;5079682;28;20020;-78
2022/07/18 05:06:03;;;;;;;4.85;3.42;;;16.40;99.90;;;;;;5079924;28;20078;-78
2022/07/18 05:08:29;;;;;;;3.08;2.72;;;16.40;99.90;;;;;;5090099;28;20032;-79
2022/07/18 05:10:54;;;;;;;2.58;2.38;;;16.50;99.90;;;;;;5093757;28;20032;-79
2022/07/18 05:13:20;;;;;;;2.22;1.80;;;16.70;99.90;;;;;;5095322;28;20059;-79
2022/07/18 05:15:46;;;;;;;4.65;2.08;;;16.80;99.90;;;;;;5082250;28;20029;-80
2022/07/18 05:18:11;;;;;;;2.63;2.22;;;16.90;99.90;;;;;;5083787;28;20021;-79
2022/07/18 05:20:37;;;;;;;1.98;1.80;;;16.80;99.90;;;;;;5078523;28;20119;-79
2022/07/18 05:23:03;;;;;;;3.38;2.10;;;16.60;99.90;;;;;;5081038;28;20012;-79
2022/07/18 05:25:28;;;;;;;1.80;1.70;;;16.70;99.90;;;;;;5101788;28;20082;-78
2022/07/18 05:27:54;;;;;;;2.85;1.98;;;16.80;99.90;;;;;;5086782;28;20475;-80
2022/07/18 05:30:21;;;;;;;1.90;1.80;;;17.00;99.90;;;;;;5087282;28;20036;-84
2022/07/18 05:32:48;;;;;;;2.10;1.90;;;17.10;99.90;;;;;;5095557;28;20028;-80
2022/07/18 05:35:14;;;;;;;4.65;1.60;;;17.10;99.90;;;;;;5080630;28;20432;-80
2022/07/18 05:37:40;;;;;;;3.10;2.05;;;17.00;99.90;;;;;;5085761;28;20051;-81
2022/07/18 05:40:08;;;;;;;1.42;1.33;;;17.10;99.90;;;;;;5094078;28;20055;-86
2022/07/18 05:42:34;;;;;;;3.25;1.75;;;17.40;99.90;;;;;;5095267;28;20027;-81
2022/07/18 05:45:00;;;;;;;2.38;1.42;;;17.50;99.90;;;;;;5086005;28;20387;-77
2022/07/18 05:47:25;;;;;;;2.78;2.15;;;17.80;99.90;;;;;;5079728;28;20017;-87
2022/07/18 05:49:51;;;;;;;2.97;1.23;;;18.10;99.90;;;;;;5083318;28;20523;-80
2022/07/18 05:52:17;;;;;;;2.10;1.88;;;18.40;99.90;;;;;;5081383;28;20028;-77
2022/07/18 05:54:42;;;;;;;2.15;1.90;;;18.60;99.90;;;;;;5086590;28;20016;-78
2022/07/18 05:57:08;;;;;;;1.50;1.40;;;18.70;99.90;;;;;;5092877;28;20035;-78
2022/07/18 05:59:34;;;;;;;1.80;1.27;;;18.80;99.90;;;;;;5098790;28;20377;-78
2022/07/18 06:02:00;;;;;;;3.53;2.15;;;19.00;99.90;;;;;;5083104;28;20024;-78
2022/07/18 06:04:25;;;;;;;2.20;1.63;;;19.00;99.90;;;;;;5081634;28;20036;-79
2022/07/18 06:06:51;;;;;;;1.58;1.48;;;19.00;99.90;;;;;;5094627;28;20026;-81
2022/07/18 06:09:17;;;;;;;5.63;2.10;;;18.90;99.90;;;;;;5082612;28;20025;-78
2022/07/18 06:11:43;;;;;;;1.55;1.33;;;19.00;99.90;;;;;;5100447;28;20358;-78
2022/07/18 06:14:09;;;;;;;2.30;1.42;;;19.10;99.90;;;;;;5086820;28;20017;-79
2022/07/18 06:16:34;;;;;;;2.45;1.67;;;19.10;99.90;;;;;;5088316;28;20518;-78
2022/07/18 06:19:00;;;;;;;1.98;1.77;;;19.30;99.90;;;;;;5083667;28;20164;-79
2022/07/18 06:21:26;;;;;;;2.25;1.70;;;19.40;99.90;;;;;;5074117;28;20028;-81
2022/07/18 06:23:52;;;;;;;5.50;2.35;;;19.50;99.90;;;;;;5083253;28;20055;-77
2022/07/18 06:26:18;;;;;;;2.28;1.67;;;19.50;99.50;;;;;;5078220;28;20016;-79
2022/07/18 06:28:43;;;;;;;1.33;1.23;;;19.50;99.40;;;;;;5088535;28;20028;-79
2022/07/18 06:31:11;;;;;;;3.67;1.77;;;19.60;99.20;;;;;;5075914;28;20040;-79
2022/07/18 06:33:37;;;;;;;1.45;1.35;;;19.80;99.00;;;;;;5093675;28;20028;-80
2022/07/18 06:36:05;;;;;;;4.05;1.80;;;19.80;97.70;;;;;;5077225;28;20029;-81
2022/07/18 06:38:31;;;;;;;1.80;1.35;;;19.80;96.90;;;;;;5090964;28;20031;-81
2022/07/18 06:40:56;;;;;;;2.53;1.50;;;20.00;96.80;;;;;;5074764;28;20032;-81
2022/07/18 06:43:22;;;;;;;2.88;1.45;;;20.00;96.90;;;;;;5094218;28;20028;-81
2022/07/18 06:45:50;;;;;;;2.28;1.20;;;20.10;96.50;;;;;;5088070;28;20035;-80
2022/07/18 06:48:16;;;;;;;1.42;1.10;;;20.20;95.90;;;;;;5083033;28;20032;-81
2022/07/18 06:50:42;;;;;;;1.13;0.82;;;20.30;94.40;;;;;;5096100;28;20037;-81
2022/07/18 06:53:07;;;;;;;1.20;1.10;;;20.50;93.70;;;;;;5081228;28;20043;-81
2022/07/18 06:55:33;;;;;;;2.00;1.48;;;20.80;94.00;;;;;;5086344;28;20016;-80
2022/07/18 06:57:59;;;;;;;4.45;2.17;;;21.10;92.60;;;;;;5086791;28;20031;-80
2022/07/18 07:00:26;;;;;;;3.92;1.00;;;21.40;91.40;;;;;;5090591;28;20038;-80
2022/07/18 07:02:52;;;;;;;3.55;1.00;;;21.40;90.90;;;;;;5073701;28;20013;-81
2022/07/18 07:05:19;;;;;;;2.30;0.65;;;21.70;86.30;;;;;;5081287;28;20047;-81
2022/07/18 07:07:45;;;;;;;3.80;0.70;;;21.70;80.20;;;;;;5084265;28;20020;-81
2022/07/18 07:10:11;;;;;;;2.05;0.65;;;21.90;80.30;;;;;;5085095;28;20073;-81
2022/07/18 07:12:45;;;;;;;2.25;0.70;;;21.90;79.10;;;;;;5084266;28;20034;-80
2022/07/18 07:15:10;;;;;;;0.80;0.47;;;22.00;78.00;;;;;;5093546;28;20031;-82
2022/07/18 07:17:36;;;;;;;1.20;0.68;;;22.10;77.30;;;;;;5084009;28;20036;-80
2022/07/18 07:20:05;;;;;;;1.08;0.73;;;22.10;77.60;;;;;;5083771;28;20532;-81
2022/07/18 07:22:32;;;;;;;2.90;0.90;;;22.30;76.00;;;;;;5082185;28;20422;-83
2022/07/18 07:24:58;;;;;;;1.13;0.57;;;22.40;76.50;;;;;;5101052;28;20031;-80
2022/07/18 07:27:23;;;;;;;1.65;1.08;;;22.70;75.00;;;;;;5079734;28;20020;-79
2022/07/18 07:29:49;;;;;;;0.90;0.77;;;23.00;71.80;;;;;;5091906;28;20040;-82
2022/07/18 07:32:15;;;;;;;2.05;0.57;;;23.20;76.10;;;;;;5075733;28;20097;-81
2022/07/18 07:34:40;;;;;;;0.50;0.50;;;23.30;73.50;;;;;;5073219;28;20040;-81
2022/07/18 07:37:06;;;;;;;2.25;0.65;;;23.50;71.10;;;;;;5078749;28;20020;-81
2022/07/18 07:39:32;;;;;;;0.70;0.40;;;23.70;72.40;;;;;;5092516;28;20053;-81
2022/07/18 07:41:57;;;;;;;0.60;0.60;;;23.90;70.20;;;;;;5081815;28;20062;-80
2022/07/18 07:44:23;;;;;;;1.90;0.68;;;23.90;71.50;;;;;;5088934;28;20039;-81
2022/07/18 07:46:49;;;;;;;0.50;0.50;;;24.10;69.60;;;;;;5073576;28;20037;-81
2022/07/18 07:49:15;;;;;;;0.50;0.50;;;24.10;71.60;;;;;;5080826;28;20405;-80
2022/07/18 07:51:40;;;;;;;0.60;0.60;;;24.10;71.90;;;;;;5089197;28;20114;-81
2022/07/18 07:54:06;;;;;;;0.93;0.82;;;24.20;70.50;;;;;;5081232;28;20027;-81
2022/07/18 07:56:32;;;;;;;0.82;0.60;;;24.30;70.40;;;;;;5071968;28;20029;-81
2022/07/18 07:58:58;;;;;;;1.70;1.55;;;24.50;71.50;;;;;;5074281;28;20051;-81
2022/07/18 08:01:23;;;;;;;1.52;0.80;;;24.50;71.40;;;;;;5092587;28;20028;-81
2022/07/18 08:03:50;;;;;;;0.68;0.40;;;24.70;69.50;;;;;;5074500;28;20048;-81
2022/07/18 08:06:16;;;;;;;1.30;0.45;;;24.80;70.30;;;;;;5072441;28;20040;-82
2022/07/18 08:08:41;;;;;;;7.00;0.60;;;24.90;67.10;;;;;;5078975;28;20116;-81
2022/07/18 08:11:07;;;;;;;1.10;0.60;;;25.00;64.50;;;;;;5088395;28;20111;-80
2022/07/18 08:13:33;;;;;;;1.58;0.55;;;25.10;65.80;;;;;;5086245;28;20077;-82
2022/07/18 08:15:58;;;;;;;0.20;0.20;;;25.20;63.00;;;;;;5073841;28;20025;-82
2022/07/18 08:18:24;;;;;;;1.85;0.40;;;25.30;63.90;;;;;;5080428;28;20392;-82
2022/07/18 08:20:50;;;;;;;0.40;0.30;;;25.30;64.00;;;;;;5079737;28;20120;-81
2022/07/18 08:23:17;;;;;;;1.40;0.60;;;25.30;62.50;;;;;;5084560;28;20015;-82
2022/07/18 08:25:44;;;;;;;0.63;0.63;;;25.30;63.40;;;;;;5084672;28;20043;-80
2022/07/18 08:28:10;;;;;;;2.13;0.40;;;25.30;63.00;;;;;;5083630;28;20016;-82
2022/07/18 08:30:37;;;;;;;2.03;0.75;;;25.50;62.60;;;;;;5091600;28;20403;-82
2022/07/18 08:33:03;;;;;;;0.77;0.52;;;25.50;62.80;;;;;;5091293;28;20039;-82
2022/07/18 08:35:31;;;;;;;2.10;0.40;;;25.50;62.50;;;;;;5078145;28;20029;-82
2022/07/18 08:37:57;;;;;;;3.20;0.80;;;25.60;63.00;;;;;;5079664;28;20471;-81
2022/07/18 08:40:24;;;;;;;0.50;0.50;;;25.70;63.00;;;;;;5081031;28;20605;-83
2022/07/18 08:42:55;;;;;;;1.58;0.70;;;25.70;63.60;;;;;;5071690;28;20116;-80
2022/07/18 08:45:23;;;;;;;1.52;0.98;;;25.70;63.40;;;;;;5084257;28;20103;-83
2022/07/18 08:47:50;;;;;;;1.50;0.57;;;25.80;63.90;;;;;;5092756;28;20027;-81
2022/07/18 08:50:16;;;;;;;2.83;0.50;;;25.90;62.40;;;;;;5090725;28;20035;-84
2022/07/18 08:52:42;;;;;;;1.35;0.50;;;25.90;62.50;;;;;;5084601;28;20016;-84
2022/07/18 08:55:09;;;;;;;3.95;0.70;;;26.10;62.90;;;;;;5110097;28;20059;-81
2022/07/18 08:57:34;;;;;;;0.73;0.52;;;26.00;62.60;;;;;;5111673;28;20437;-82
2022/07/18 09:00:04;;;;;;;1.70;0.55;;;26.10;63.50;;;;;;5103783;28;20119;-83
2022/07/18 09:02:29;;;;;;;0.45;0.40;;;26.10;62.50;;;;;;5082211;28;20016;-80
2022/07/18 09:04:55;;;;;;;0.82;0.47;;;26.30;63.60;;;;;;5075815;28;20037;-82
2022/07/18 09:07:30;;;;;;;1.10;0.70;;;26.40;63.20;;;;;;5080000;28;20028;-82
2022/07/18 09:09:58;;;;;;;1.25;0.85;;;26.50;65.60;;;;;;5084296;28;20129;-82
2022/07/18 09:12:26;;;;;;;3.33;1.05;;;26.40;63.10;;;;;;5070963;28;20071;-82
2022/07/18 09:14:53;;;;;;;3.03;0.95;;;26.50;64.50;;;;;;5083844;28;20016;-82
2022/07/18 09:17:19;;;;;;;2.47;1.40;;;26.60;62.50;;;;;;5090122;28;20414;-81
2022/07/18 09:20:07;;;;;;;2.00;0.85;;;26.80;62.00;;;;;;5087627;28;20019;-80
2022/07/18 09:22:38;;;;;;;3.83;0.90;;;27.00;62.90;;;;;;5089585;28;20032;-82
2022/07/18 09:25:13;;;;;;;4.85;0.52;;;27.20;62.40;;;;;;5077629;28;20020;-80
2022/07/18 09:27:44;;;;;;;2.67;0.80;;;27.20;60.70;;;;;;5080677;28;20032;-80
2022/07/18 09:30:36;;;;;;;2.35;0.50;;;27.20;62.80;;;;;;5076668;28;20043;-81
2022/07/18 09:33:02;;;;;;;2.38;0.50;;;27.30;62.60;;;;;;5085916;28;20032;-81
2022/07/18 09:35:29;;;;;;;2.33;0.85;;;27.40;62.30;;;;;;5083606;28;20523;-81
2022/07/18 09:38:01;;;;;;;1.63;0.63;;;27.50;61.90;;;;;;5076099;28;20020;-82
2022/07/18 09:40:30;;;;;;;1.65;0.77;;;27.50;61.20;;;;;;5073096;28;20073;-82
2022/07/18 09:42:59;;;;;;;1.40;1.05;;;27.60;60.70;;;;;;5079468;28;20137;-82
2022/07/18 09:45:32;;;;;;;0.63;0.63;;;27.60;61.90;;;;;;5077607;28;20024;-82
2022/07/18 09:48:02;;;;;;;1.13;0.60;;;27.60;61.60;;;;;;5070249;28;20017;-81
2022/07/18 09:50:27;;;;;;;1.38;0.55;;;27.60;59.40;;;;;;5087293;28;20040;-81
2022/07/18 09:52:58;;;;;;;1.88;0.70;;;27.60;60.10;;;;;;5082424;28;20392;-81
2022/07/18 09:55:24;;;;;;;0.70;0.57;;;27.50;64.90;;;;;;5084268;28;20024;-83
2022/07/18 09:58:05;;;;;;;6.15;0.70;;;27.70;62.20;;;;;;5076913;28;20494;-83
2022/07/18 10:00:33;;;;;;;0.63;0.57;;;27.80;67.00;;;;;;5087363;28;20028;-84
2022/07/18 10:03:01;;;;;;;7.30;0.80;;;27.90;60.80;;;;;;5094899;28;20022;-85
2022/07/18 10:05:28;;;;;;;3.58;0.82;;;27.90;60.90;;;;;;5097777;28;20180;-84
2022/07/18 10:07:54;;;;;;;4.53;1.00;;;28.00;61.50;;;;;;5078916;28;20028;-85
2022/07/18 10:10:24;;;;;;;2.00;0.65;;;;;;;;;;5074986;28;20043;-83
2022/07/18 10:12:53;;;;;;;0.70;0.70;;;28.10;95.20;;;;;;5091651;28;20027;-85
2022/07/18 10:15:22;;;;;;;1.10;0.70;;;28.10;61.20;;;;;;5094331;28;20035;-84
2022/07/18 10:17:48;;;;;;;1.52;0.50;;;28.10;59.80;;;;;;5097443;28;20034;-84
2022/07/18 10:20:14;;;;;;;3.45;0.75;;;28.20;61.60;;;;;;5078454;28;20111;-85
2022/07/18 10:22:43;;;;;;;1.27;0.70;;;28.20;60.30;;;;;;5086901;28;20040;-84
2022/07/18 10:25:11;;;;;;;0.60;0.60;;;28.20;59.40;;;;;;5094063;28;20028;-81
2022/07/18 10:28:05;;;;;;;1.38;0.63;;;28.10;59.70;;;;;;5087700;28;20039;-83
2022/07/18 10:30:34;;;;;;;0.65;0.65;;;28.00;58.30;;;;;;5072702;28;20028;-81
2022/07/18 10:33:01;;;;;;;1.95;0.73;;;28.10;59.70;;;;;;5081136;28;20028;-81
2022/07/18 10:36:07;;;;;;;1.88;0.77;;;28.00;58.60;;;;;;5078218;28;20720;-81
2022/07/18 10:38:33;;;;;;;0.97;0.63;;;28.10;60.50;;;;;;5074722;28;20391;-81
2022/07/18 10:41:06;;;;;;;0.75;0.57;;;28.20;60.50;;;;;;5076309;28;20170;-82
2022/07/18 10:43:32;;;;;;;0.85;0.60;;;28.20;59.50;;;;;;5084570;28;20036;-81
2022/07/18 10:46:03;;;;;;;2.50;0.85;;;28.30;60.00;;;;;;5084627;28;20632;-80
2022/07/18 10:48:35;;;;;;;2.25;0.68;;;28.50;59.80;;;;;;5088390;28;20038;-82
2022/07/18 10:51:12;;;;;;;2.70;1.17;;;28.40;59.10;;;;;;5080999;28;20055;-80
2022/07/18 10:54:04;;;;;;;2.70;0.93;;;28.30;59.00;;;;;;5085461;28;20058;-82
2022/07/18 10:56:36;;;;;;;6.13;1.00;;;28.00;59.00;;;;;;5084777;28;20024;-84
2022/07/18 10:59:14;;;;;;;0.98;0.63;;;28.10;59.80;;;;;;5085649;28;20089;-81
2022/07/18 11:01:56;;;;;;;1.13;0.65;;;28.30;60.30;;;;;;5089159;28;20107;-81
2022/07/18 11:04:26;;;;;;;1.48;0.60;;;28.40;60.20;;;;;;5074714;28;20373;-82
2022/07/18 11:07:02;;;;;;;0.95;0.50;;;28.60;60.10;;;;;;5084572;28;20036;-81
2022/07/18 11:09:45;;;;;;;0.85;0.63;;;28.70;59.40;;;;;;5089686;28;20024;-81
2022/07/18 11:12:20;;;;;;;0.70;0.70;;;28.80;58.50;;;;;;5080191;28;20051;-80
2022/07/18 11:15:12;;;;;;;1.83;0.80;;;28.90;58.00;;;;;;5077867;28;20463;-82
2022/07/18 11:17:53;;;;;;;0.85;0.38;;;28.90;60.00;;;;;;5080500;28;20025;-82
2022/07/18 11:20:34;;;;;;;0.70;0.70;;;29.00;58.10;;;;;;5072039;28;20575;-82
2022/07/18 11:23:01;;;;;;;0.60;0.60;;;29.00;57.20;;;;;;5079332;28;20544;-81
2022/07/18 11:25:28;;;;;;;0.45;0.45;;;29.00;60.00;;;;;;5097311;28;20016;-82
2022/07/18 11:27:56;;;;;;;1.17;0.80;;;29.10;59.50;;;;;;5078460;28;20020;-82
2022/07/18 11:30:23;;;;;;;2.58;0.82;;;29.20;58.00;;;;;;5082712;28;20032;-84
2022/07/18 11:32:50;;;;;;;0.75;0.70;;;29.20;57.80;;;;;;5071662;28;20020;-80
2022/07/18 11:35:21;;;;;;;1.90;1.42;;;29.20;56.90;;;;;;5096710;27;20020;-82
2022/07/18 11:37:48;;;;;;;2.72;0.60;;;29.00;56.70;;;;;;5071318;28;20045;-80
2022/07/18 11:40:15;;;;;;;0.98;0.70;;;29.00;56.90;;;;;;5081161;28;20015;-80
2022/07/18 11:42:41;;;;;;;4.40;0.57;;;28.90;57.90;;;;;;5079688;28;20569;-82
2022/07/18 11:45:09;;;;;;;1.17;0.93;;;28.90;57.10;;;;;;5078200;28;20024;-82
2022/07/18 11:47:53;;;;;;;1.08;0.60;;;28.50;56.30;;;;;;5089739;28;20047;-80
2022/07/18 11:50:35;;;;;;;2.65;0.80;;;28.50;57.50;;;;;;5077910;28;20387;-81
2022/07/18 11:53:01;;;;;;;1.98;1.00;;;28.50;59.70;;;;;;5072574;28;20111;-82
2022/07/18 11:55:34;;;;;;;1.17;1.08;;;28.70;59.10;;;;;;5087290;28;20166;-82
2022/07/18 11:58:14;;;;;;;2.38;1.00;;;28.80;57.50;;;;;;5074864;28;20055;-82
2022/07/18 12:00:41;;;;;;;0.73;0.70;;;28.90;56.80;;;;;;5081543;28;20071;-80
2022/07/18 12:03:22;;;;;;;3.35;0.50;;;28.80;55.60;;;;;;5072153;28;20067;-80
2022/07/18 12:05:53;;;;;;;1.40;0.95;;;28.80;56.90;;;;;;5081234;28;20040;-80
2022/07/18 12:08:51;;;;;;;1.15;0.50;;;29.00;58.20;;;;;;5086413;28;20021;-80
2022/07/18 12:11:39;;;;;;;4.30;0.77;;;28.90;54.90;;;;;;5060968;28;20044;-81
2022/07/18 12:14:07;;;;;;;1.98;0.98;;;28.90;55.40;;;;;;5080457;28;20103;-81
2022/07/18 12:16:47;;;;;;;0.80;0.70;;;29.00;57.00;;;;;;5098673;28;20443;-84
2022/07/18 12:19:15;;;;;;;0.85;0.55;;;29.10;57.20;;;;;;5088199;28;20084;-85
2022/07/18 12:21:42;;;;;;;3.13;0.68;;;29.30;58.20;;;;;;5080015;28;20085;-84
2022/07/18 12:24:37;;;;;;;0.70;0.70;;;29.40;57.30;;;;;;5088627;28;20051;-84
2022/07/18 12:27:17;;;;;;;1.73;1.00;;;29.60;57.30;;;;;;5076582;28;20046;-86
2022/07/18 12:30:12;;;;;;;1.73;0.68;;;29.60;56.80;;;;;;5088929;28;20055;-87
2022/07/18 12:32:56;;;;;;;0.70;0.70;;;29.70;56.30;;;;;;5096341;28;20094;-87
2022/07/18 12:35:35;;;;;;;0.98;0.88;;;29.70;57.20;;;;;;5076417;28;20032;-87
2022/07/18 12:38:05;;;;;;;1.15;0.60;;;29.60;56.20;;;;;;5110622;28;20032;-86
2022/07/18 12:40:44;;;;;;;0.73;0.70;;;29.70;56.00;;;;;;5091863;28;20024;-86
2022/07/18 12:43:13;;;;;;;0.68;0.45;;;29.70;54.70;;;;;;5082231;28;20371;-86
2022/07/18 12:45:39;;;;;;;0.68;0.68;;;29.50;54.30;;;;;;5100409;28;20471;-85
2022/07/18 12:48:07;;;;;;;0.60;0.60;;;29.50;56.00;;;;;;5112807;28;20118;-85
2022/07/18 12:50:33;;;;;;;1.65;1.00;;;29.50;56.70;;;;;;5112668;28;20080;-85
2022/07/18 12:52:59;;;;;;;5.93;0.90;;;29.70;56.60;;;;;;5113178;28;20027;-85